Ridgefield, North Carolina
Current Conditions -  °F | °C
As of 3:54 PM on Sunday 23 Nov 2014 (Local Time) from KGSO Reporting Station
Light Rain Light Rain  
Wind Chill: 51°   Ceiling: 800
Heat Index: 51°   Visibility: 5mi
Dew Point: 48°   Wind: 9mph
Humidity: 89%   Direction: 80°E
Pressure: 29.98"   Gusts: NA
Location:  36.1197°N, 79.8944°W
Report Text: KGSO 232054Z 08008KT 5SM -RA BR OVC008 11/09 A2998 RMK AO2 RAE14B42 SLP154 P0000 60000 T01060089 58035
Loading
Personal Weather Stations






























Interactive Weather Map New forecast layout! Learn more

10-Day Weather Forecast

Advertisements
Track Severe Weather on mobile